Home > Products > Valid Products > TAF

000
FTUS44 KJAN 011640 AAC
TAFHBG
TAF AMD
KHBG 011640Z 0117/0212 18004KT 5SM -RA BR SCT015 BKN040 OVC090
     FM011730 17009KT 3SM RA BR VCTS SCT007 BKN020 OVC040CB
     FM011900 16009KT P6SM -RA SCT012 OVC100
     FM020000 14005KT P6SM SCT025 BKN120
     FM020900 10004KT 5SM BR BKN007 OVC015=



000
FTUS44 KJAN 011539 AAD
TAFJAN
TAF AMD
KJAN 011539Z 0116/0212 15008KT P6SM -RA BKN010 OVC120
     FM011700 16008KT P6SM VCSH BKN050
     FM020000 15007KT P6SM BKN060
     FM020800 16005KT P6SM VCSH BKN015 OVC025=



000
FTUS44 KJAN 011520 AAB
TAFHBG
TAF AMD
KHBG 011520Z 0115/0212 15003KT P6SM OVC007
     FM011530 17009KT 5SM -RA BR VCTS BKN007 OVC025CB
     FM011900 16009KT 6SM -SHRA VCTS BKN050CB
     FM020000 14005KT P6SM BKN050
     FM020900 10004KT 5SM BR BKN007 OVC015=



000
FTUS44 KJAN 011520 AAB
TAFHBG
TAF AMD
KHBG 011520Z 0115/0212 15003KT P6SM OVC007
     FM011530 17009KT 5SM -RA BR VCTS BKN007 OVC025CB
     FM011900 16009KT 6SM -SHRA VCTS BKN050CB
     FM020000 14005KT P6SM BKN050
     FM020900 10004KT 5SM BR BKN007 OVC015=



000
FTUS44 KJAN 011455 AAB
TAFJAN
TAF AMD
KJAN 011455Z 0115/0212 18017G25KT 2SM TSRA BR OVC008CB
     FM011600 17010KT 5SM -RA BR VCTS OVC035CB
     FM011800 16008KT P6SM VCSH BKN050
     FM020000 15007KT P6SM BKN060
     FM020800 16005KT P6SM VCSH BKN015 OVC025=



000
FTUS44 KJAN 011425 AAB
TAFJAN
TAF AMD
KJAN 011425Z 0114/0212 18005KT P6SM -RA VCTS BKN008 BKN070CB OVC250
     FM011500 18020G33KT 1SM +TSRA BR BKN007 OVC015CB
     FM011615 17010KT 5SM -RA BR VCTS OVC035CB
     FM011800 16008KT P6SM VCSH BKN050
     FM020000 15007KT P6SM BKN060
     FM020800 16005KT P6SM VCSH BKN015 OVC025=



000
FTUS44 KJAN 011237 AAA
TAFMEI
TAF AMD
KMEI 011237Z 0113/0212 19006KT P6SM OVC008
     FM011600 18007KT 5SM -SHRA VCTS SCT007 OVC015CB
     FM011800 16007KT P6SM VCSH BKN050
     FM020000 14009KT P6SM SCT025 BKN060=



000
FTUS44 KJAN 011236 AAA
TAFHBG
TAF AMD
KHBG 011236Z 0113/0212 00000KT 3/4SM BR OVC003
     FM011400 16003KT 3SM BR OVC005
     FM011500 17009KT 5SM SHRA VCTS OVC040CB
     FM011900 16009KT 6SM -SHRA VCTS BKN050CB
     FM020000 14005KT P6SM BKN050
     FM020900 10004KT 5SM BR BKN007 OVC015=



000
FTUS44 KJAN 011120
TAFHBG
TAF
KHBG 011120Z 0112/0212 13006KT P6SM VCTS BKN008 OVC015CB
     FM011500 17009KT 5SM SHRA VCTS OVC040CB
     FM011900 16009KT 6SM -SHRA VCTS BKN050CB
     FM020000 14005KT P6SM BKN050
     FM020900 10004KT 5SM BR BKN007 OVC015=



000
FTUS44 KJAN 011120
TAFJAN
TAF
KJAN 011120Z 0112/0212 16005KT P6SM VCSH SCT025 BKN040
     FM011400 15007KT 5SM -SHRA VCTS OVC035CB
     FM011800 16008KT P6SM VCSH BKN050
     FM020000 15007KT P6SM BKN060
     FM020800 16005KT P6SM VCSH BKN015 OVC025=



000
FTUS44 KJAN 011120
TAFMEI
TAF
KMEI 011120Z 0112/0212 19006KT P6SM VCSH BKN060
     FM011500 18007KT 5SM -SHRA VCTS SCT007 OVC015CB
     FM011800 16007KT P6SM VCSH BKN050
     FM020000 14009KT P6SM SCT025 BKN060=



000
FTUS44 KJAN 011120
TAFGWO
TAF
KGWO 011120Z 0112/0212 16005KT P6SM VCSH BKN015 OVC025
     FM011700 17007KT P6SM VCTS BKN040CB
     FM020000 16004KT P6SM BKN070
     FM020700 14004KT 6SM BR VCTS OVC025CB=



000
FTUS44 KJAN 011120
TAFGLH
TAF
KGLH 011120Z 0112/0212 15004KT P6SM VCSH BKN015 OVC025
     FM011600 19006KT P6SM VCTS BKN040CB
     FM020000 23005KT P6SM BKN070
     FM020500 35006KT 6SM -SHRA VCTS OVC025CB=



000
FTUS44 KJAN 011120
TAFHBG
TAF
KHBG 011120Z 0112/0212 13006KT P6SM VCTS BKN008 OVC015CB
     FM011500 17009KT 5SM SHRA VCTS OVC040CB
     FM011900 16009KT 6SM -SHRA VCTS BKN050CB
     FM020000 14005KT P6SM BKN050
     FM020900 10004KT 5SM BR BKN007 OVC015=



000
FTUS44 KJAN 011120
TAFJAN
TAF
KJAN 011120Z 0112/0212 16005KT P6SM VCSH SCT025 BKN040
     FM011400 15007KT 5SM -SHRA VCTS OVC035CB
     FM011800 16008KT P6SM VCSH BKN050
     FM020000 15007KT P6SM BKN060
     FM020800 16005KT P6SM VCSH BKN015 OVC025=



000
FTUS44 KJAN 011120
TAFMEI
TAF
KMEI 011120Z 0112/0212 19006KT P6SM VCSH BKN060
     FM011500 18007KT 5SM -SHRA VCTS SCT007 OVC015CB
     FM011800 16007KT P6SM VCSH BKN050
     FM020000 14009KT P6SM SCT025 BKN060=



000
FTUS44 KJAN 011120
TAFGWO
TAF
KGWO 011120Z 0112/0212 16005KT P6SM VCSH BKN015 OVC025
     FM011700 17007KT P6SM VCTS BKN040CB
     FM020000 16004KT P6SM BKN070
     FM020700 14004KT 6SM BR VCTS OVC025CB=



000
FTUS44 KJAN 011120
TAFGLH
TAF
KGLH 011120Z 0112/0212 15004KT P6SM VCSH BKN015 OVC025
     FM011600 19006KT P6SM VCTS BKN040CB
     FM020000 23005KT P6SM BKN070
     FM020500 35006KT 6SM -SHRA VCTS OVC025CB=



000
FTUS44 KJAN 010941 AAA
TAFMEI
TAF AMD
KMEI 010941Z 0110/0206 00000KT P6SM BKN060
     FM011100 17005KT P6SM VCSH BKN015 OVC025
     FM011400 18007KT 5SM -SHRA VCTS SCT007 OVC015CB
     FM011700 17010KT P6SM VCTS BKN050CB
     FM020000 17005KT P6SM SCT025 BKN050=



000
FTUS44 KJAN 010941 AAA
TAFMEI
TAF AMD
KMEI 010941Z 0110/0206 00000KT P6SM BKN060
     FM011100 17005KT P6SM VCSH BKN015 OVC025
     FM011400 18007KT 5SM -SHRA VCTS SCT007 OVC015CB
     FM011700 17010KT P6SM VCTS BKN050CB
     FM020000 17005KT P6SM SCT025 BKN050=



000
FTUS44 KJAN 010548
TAFHBG
TAF
KHBG 010548Z 0106/0206 00000KT P6SM BKN060
     FM010900 14005KT P6SM BKN007 OVC015
     FM011600 16009KT P6SM VCTS OVC025CB
     FM011800 16008KT 5SM -SHRA VCTS BKN050CB
     FM012300 17006KT P6SM BKN050=



000
FTUS44 KJAN 010548
TAFMEI
TAF
KMEI 010548Z 0106/0206 17004KT P6SM BKN040
     FM010700 17005KT P6SM BKN007 OVC015
     FM011500 18007KT 5SM -SHRA VCTS SCT007 OVC015CB
     FM011700 17010KT P6SM VCTS BKN050CB
     FM020000 17005KT P6SM SCT025 BKN050=



000
FTUS44 KJAN 010540 CCA
TAFGWO
TAF COR
KGWO 010540Z 0106/0206 15006KT P6SM VCSH BKN015 OVC025
     FM011600 17007KT P6SM VCSH BKN040=



000
FTUS44 KJAN 010540
TAFGWO
TAF
KGWO 010540Z 0106/0206 18006KT P6SM BKN035
     FM010800 15005KT P6SM VCSH BKN015 OVC025
     FM011600 17007KT P6SM VCSH BKN040=



000
FTUS44 KJAN 010540
TAFGLH
TAF
KGLH 010540Z 0106/0206 16005KT P6SM BKN045
     FM010700 15004KT P6SM VCSH BKN015 OVC025
     FM011500 22007KT P6SM BKN040=



000
FTUS44 KJAN 010540
TAFJAN
TAF
KJAN 010540Z 0106/0206 18005KT P6SM FEW035 BKN050
     FM010900 16005KT P6SM VCSH SCT007 BKN015
     FM011400 18008KT 5SM -SHRA VCTS OVC035CB
     FM012100 17008KT P6SM VCTS BKN050CB
     FM020000 15006KT P6SM BKN050=



000
FTUS44 KJAN 302332
TAFGLH
TAF
KGLH 302332Z 0100/0124 15008KT P6SM SCT030
     FM010700 17004KT P6SM BKN015
     FM011600 22006KT P6SM SCT015 OVC050=



000
FTUS44 KJAN 302332
TAFJAN
TAF
KJAN 302332Z 0100/0124 15011KT P6SM FEW050 SCT120
     FM010800 17005KT P6SM OVC015
     FM011100 18004KT 5SM BR OVC015
     FM011400 18006KT P6SM OVC025
     FM011700 18008KT P6SM VCTS BKN050CB=



000
FTUS44 KJAN 302332
TAFHBG
TAF
KHBG 302332Z 0100/0124 16015KT P6SM -RA SCT025 BKN080 OVC120
     FM010200 17007KT P6SM FEW050 SCT120
     FM010800 17005KT P6SM OVC015
     FM011000 17003KT 5SM BR OVC007
     FM011500 19009KT P6SM VCSH OVC025
     FM011700 19008KT P6SM VCTS BKN050CB=



000
FTUS44 KJAN 302332
TAFGWO
TAF
KGWO 302332Z 0100/0124 16008KT P6SM SCT030
     FM010800 17004KT P6SM BKN015
     FM011700 18007KT P6SM SCT015 OVC050=



000
FTUS44 KJAN 302332
TAFMEI
TAF
KMEI 302332Z 0100/0124 15011KT P6SM -RA SCT025 OVC120
     FM010200 17007KT P6SM FEW050 SCT120
     FM010800 17005KT P6SM OVC015
     FM011000 17003KT 5SM BR OVC007
     FM011500 19009KT P6SM VCSH OVC025
     FM011700 19008KT P6SM VCTS BKN050CB=



000
FTUS44 KJAN 302138 AAB
TAFJAN
TAF AMD
KJAN 302138Z 3022/0118 15011KT P6SM SCT050 BKN120
     FM010800 17005KT P6SM OVC015
     FM011100 18004KT 5SM -SHRA BR OVC015
     FM011500 18006KT P6SM OVC025
     FM011700 18008KT P6SM VCTS BKN050CB=



000
FTUS44 KJAN 302132 AAA
TAFHBG
TAF AMD
KHBG 302132Z 3022/0118 22015G25KT 3SM TSRA BKN025CB OVC070
     FM302300 22015KT P6SM -RA SCT025 BKN080 OVC120
     FM010800 17007KT 4SM BR OVC020
     FM011300 18008KT 5SM -SHRA BR OVC015
     FM011500 19010KT P6SM -SHRA OVC025
     FM011700 19011G17KT P6SM VCTS BKN050CB=



000
FTUS44 KJAN 302127 AAA
TAFMEI
TAF AMD
KMEI 302127Z 3021/0118 23020G40KT 2SM TSRA BKN025CB OVC120
     FM302330 22010KT P6SM -SHRA SCT025 BKN060 OVC120
     FM010200 23010KT P6SM SCT015 OVC120
     FM010800 17007KT P6SM OVC020
     FM011000 21008KT 5SM -SHRA OVC015=



000
FTUS44 KJAN 301813 RRA
TAFJAN
TAF
KJAN 301813Z 3018/0118 15010KT P6SM -SHRA VCTS BKN015 OVC025CB
      TEMPO 3020/3022 VRB20G30KT 2SM TSRA BKN010CB
     FM010200 23010KT P6SM SCT015 OVC100
     FM010800 17007KT 5SM BR VCSH OVC020
     FM011100 21008KT 5SM -SHRA OVC015=



000
FTUS44 KJAN 301813 RRA
TAFMEI
TAF
KMEI 301813Z 3018/0118 23010KT P6SM VCSH OVC015
     FM302300 22010KT P6SM -SHRA BKN015 BKN040
      TEMPO 3023/0102 2SM SHRA BKN010
     FM010200 23010KT P6SM SCT015 OVC100
     FM010800 17007KT 6SM BR VCSH OVC020
     FM011000 21008KT 5SM -SHRA OVC015=



000
FTUS44 KJAN 301813 RRA
TAFGLH
TAF
KGLH 301813Z 3018/0118 17016G22KT P6SM -RA SCT050 OVC100
     FM302200 18012G18KT P6SM BKN060
     FM010200 18010KT P6SM VCSH BKN040
     FM010700 VRB04KT 5SM BR OVC015
     FM011600 22006KT P6SM SCT015 OVC050=



000
FTUS44 KJAN 301813 RRA
TAFHBG
TAF
KHBG 301813Z 3018/0118 15013G18KT P6SM VCSH SCT035
     FM301900 22010KT P6SM -TSRA SCT015CB BKN040
      TEMPO 3020/3022 2SM TSRA BKN015CB
     FM010200 23010KT P6SM SCT015 OVC100
     FM010800 17007KT 4SM BR VCSH OVC020
     FM011300 21008KT 5SM -SHRA OVC015=



000
FTUS44 KJAN 301813 RRA
TAFGWO
TAF
KGWO 301813Z 3018/0118 05012G20KT P6SM -RA SCT050 OVC100
     FM302300 15010KT P6SM BKN060
     FM010300 18006KT P6SM VCSH BKN040
     FM010800 VRB04KT 5SM BR OVC015
     FM011700 22006KT P6SM SCT015 OVC050=



000
FTUS44 KJAN 301813 RRA
TAFHBG
TAF
KHBG 301813Z 3018/0118 15013G18KT P6SM VCSH SCT035
     FM301900 22010KT P6SM -TSRA SCT015CB BKN040
      TEMPO 3020/3022 2SM TSRA BKN015CB
     FM010200 23010KT P6SM SCT015 OVC100
     FM010800 17007KT 4SM BR VCSH OVC020
     FM011300 21008KT 5SM -SHRA OVC015=



000
FTUS44 KJAN 301813 RRA
TAFGWO
TAF
KGWO 301813Z 3018/0118 05012G20KT P6SM -RA SCT050 OVC100
     FM302300 15010KT P6SM BKN060
     FM010300 18006KT P6SM VCSH BKN040
     FM010800 VRB04KT 5SM BR OVC015
     FM011700 22006KT P6SM SCT015 OVC050=



000
FTUS44 KJAN 301813 RRA
TAFGLH
TAF
KGLH 301813Z 3018/0118 17016G22KT P6SM -RA SCT050 OVC100
     FM302200 18012G18KT P6SM BKN060
     FM010200 18010KT P6SM VCSH BKN040
     FM010700 VRB04KT 5SM BR OVC015
     FM011600 22006KT P6SM SCT015 OVC050=



000
FTUS44 KJAN 301813 RRA
TAFJAN
TAF
KJAN 301813Z 3018/0118 15010KT P6SM -SHRA VCTS BKN015 OVC025CB
      TEMPO 3020/3022 VRB20G30KT 2SM TSRA BKN010CB
     FM010200 23010KT P6SM SCT015 OVC100
     FM010800 17007KT 5SM BR VCSH OVC020
     FM011100 21008KT 5SM -SHRA OVC015=



000
FTUS44 KJAN 301813 RRA
TAFMEI
TAF
KMEI 301813Z 3018/0118 23010KT P6SM VCSH OVC015
     FM302300 22010KT P6SM -SHRA BKN015 BKN040
      TEMPO 3023/0102 2SM SHRA BKN010
     FM010200 23010KT P6SM SCT015 OVC100
     FM010800 17007KT 6SM BR VCSH OVC020
     FM011000 21008KT 5SM -SHRA OVC015=



000
FTUS44 KJAN 301120
TAFGWO
TAF
KGWO 301120Z 3012/0112 15010KT P6SM SCT015
     FM301600 15015G24KT 6SM -SHRA VCTS OVC040CB
     FM301900 15015G27KT P6SM VCTS OVC070CB
     FM302100 15011KT P6SM BKN060
     FM010000 14006KT P6SM BKN040
     FM011000 16008KT 5SM BR OVC020=



000
FTUS44 KJAN 301120
TAFMEI
TAF
KMEI 301120Z 3012/0112 16011G20KT P6SM BKN010 OVC020
     FM301700 16010KT P6SM VCTS BKN040CB
     FM302100 16015G25KT 6SM -TSRA OVC040CB
     FM302300 18010KT P6SM OVC040
     FM010800 19007KT P6SM VCSH BKN015 OVC025=



000
FTUS44 KJAN 301120
TAFGLH
TAF
KGLH 301120Z 3012/0112 14011KT P6SM VCTS SCT070CB BKN110
     FM301400 17014G24KT 6SM -SHRA VCTS OVC040CB
     FM301700 15017G30KT P6SM VCTS OVC070CB
     FM301900 16012G20KT P6SM BKN060
     FM010000 14006KT P6SM BKN040
     FM010700 16008KT 5SM BR OVC020=



000
FTUS44 KJAN 301120
TAFHBG
TAF
KHBG 301120Z 3012/0112 15015G23KT P6SM BKN015 OVC025
     FM301700 17018G26KT P6SM VCTS BKN040CB
     FM302100 18020G27KT P6SM -TSRA OVC040CB
     FM010000 16010KT P6SM BKN040
     FM010600 15005KT P6SM VCSH BKN007 OVC015=



000
FTUS44 KJAN 301120
TAFJAN
TAF
KJAN 301120Z 3012/0112 14008KT P6SM FEW020 SCT030
     FM301600 15012KT P6SM VCSH OVC025
     FM301800 15013G25KT 6SM -TSRA OVC025CB
     FM302100 16010KT P6SM VCSH OVC040
     FM010000 16010KT P6SM BKN040
     FM010700 18005KT P6SM VCSH BKN020=



000
FTUS44 KJAN 301120
TAFJAN
TAF
KJAN 301120Z 3012/0112 14008KT P6SM FEW020 SCT030
     FM301600 15012KT P6SM VCSH OVC025
     FM301800 15013G25KT 6SM -TSRA OVC025CB
     FM302100 16010KT P6SM VCSH OVC040
     FM010000 16010KT P6SM BKN040
     FM010700 18005KT P6SM VCSH BKN020=



000
FTUS44 KJAN 301120
TAFGLH
TAF
KGLH 301120Z 3012/0112 14011KT P6SM VCTS SCT070CB BKN110
     FM301400 17014G24KT 6SM -SHRA VCTS OVC040CB
     FM301700 15017G30KT P6SM VCTS OVC070CB
     FM301900 16012G20KT P6SM BKN060
     FM010000 14006KT P6SM BKN040
     FM010700 16008KT 5SM BR OVC020=



000
FTUS44 KJAN 301120
TAFHBG
TAF
KHBG 301120Z 3012/0112 15015G23KT P6SM BKN015 OVC025
     FM301700 17018G26KT P6SM VCTS BKN040CB
     FM302100 18020G27KT P6SM -TSRA OVC040CB
     FM010000 16010KT P6SM BKN040
     FM010600 15005KT P6SM VCSH BKN007 OVC015=



000
FTUS44 KJAN 301120
TAFMEI
TAF
KMEI 301120Z 3012/0112 16011G20KT P6SM BKN010 OVC020
     FM301700 16010KT P6SM VCTS BKN040CB
     FM302100 16015G25KT 6SM -TSRA OVC040CB
     FM302300 18010KT P6SM OVC040
     FM010800 19007KT P6SM VCSH BKN015 OVC025=



000
FTUS44 KJAN 300549
TAFHBG
TAF
KHBG 300549Z 3006/0106 14007KT 6SM BR BKN008
     FM301400 16016G25KT P6SM BKN015 OVC025
     FM301700 16016G25KT P6SM VCSH BKN040
     FM301900 16015G25KT 6SM -TSRA OVC040CB
     FM302300 17014KT P6SM VCSH OVC040
     FM010500 17006KT P6SM OVC025=



000
FTUS44 KJAN 300549
TAFHBG
TAF
KHBG 300549Z 3006/0106 14007KT 6SM BR BKN008
     FM301400 16016G25KT P6SM BKN015 OVC025
     FM301700 16016G25KT P6SM VCSH BKN040
     FM301900 16015G25KT 6SM -TSRA OVC040CB
     FM302300 17014KT P6SM VCSH OVC040
     FM010500 17006KT P6SM OVC025=



000
FTUS44 KJAN 300546
TAFMEI
TAF
KMEI 300546Z 3006/0106 13008KT P6SM SCT050 BKN120
     FM301000 16011KT P6SM BKN015 OVC025
     FM301700 16010KT P6SM VCSH BKN040
     FM302000 16007G17KT 6SM -TSRA OVC040CB
     FM010000 16008KT P6SM VCSH OVC040
     FM010300 18009KT P6SM BKN015 OVC025=



000
FTUS44 KJAN 300542
TAFGLH
TAF
KGLH 300542Z 3006/0106 14012KT P6SM VCSH BKN045
     FM300900 17014KT 6SM -SHRA VCTS BKN015 BKN025CB
     FM301600 18015G24KT 6SM -TSRA OVC040CB
     FM301900 18014G22KT P6SM VCSH OVC040
     FM010200 16008KT P6SM VCSH OVC025=



000
FTUS44 KJAN 300542
TAFGWO
TAF
KGWO 300542Z 3006/0106 14009KT P6SM BKN100
     FM300900 16012KT 6SM BR VCSH BKN015 OVC025
     FM301600 16014G22KT 6SM -SHRA VCTS OVC040CB
     FM302100 16013KT P6SM VCSH OVC040
     FM010100 15008KT 6SM BR VCSH BKN025=



000
FTUS44 KJAN 300542
TAFJAN
TAF
KJAN 300542Z 3006/0106 15012KT P6SM BKN150
     FM301000 15009KT P6SM BKN015 OVC025
     FM301500 15010KT P6SM VCSH OVC025
     FM301800 15013G25KT 6SM -TSRA OVC040CB
     FM302200 16013KT P6SM VCSH OVC040
     FM010200 16012KT P6SM VCSH BKN020=



000
FTUS44 KJAN 300542
TAFGLH
TAF
KGLH 300542Z 3006/0106 14012KT P6SM VCSH BKN045
     FM300900 17014KT 6SM -SHRA VCTS BKN015 BKN025CB
     FM301600 18015G24KT 6SM -TSRA OVC040CB
     FM301900 18014G22KT P6SM VCSH OVC040
     FM010200 16008KT P6SM VCSH OVC025=



000
FTUS44 KJAN 300542
TAFGWO
TAF
KGWO 300542Z 3006/0106 14009KT P6SM BKN100
     FM300900 16012KT 6SM BR VCSH BKN015 OVC025
     FM301600 16014G22KT 6SM -SHRA VCTS OVC040CB
     FM302100 16013KT P6SM VCSH OVC040
     FM010100 15008KT 6SM BR VCSH BKN025=



000
FTUS44 KJAN 300542
TAFJAN
TAF
KJAN 300542Z 3006/0106 15012KT P6SM BKN150
     FM301000 15009KT P6SM BKN015 OVC025
     FM301500 15010KT P6SM VCSH OVC025
     FM301800 15013G25KT 6SM -TSRA OVC040CB
     FM302200 16013KT P6SM VCSH OVC040
     FM010200 16012KT P6SM VCSH BKN020=



000
FTUS44 KJAN 300003 RRA
TAFGLH
TAF
KGLH 300003Z 3000/3024 10006KT 6SM -SHRA SCT050 BKN110
     FM301200 16010G20KT 6SM -TSRA BKN020 BKN050CB
     FM301400 16012KT 4SM -RA BR OVC025
     FM301500 16014KT 6SM -SHRA OVC025
     FM301900 17019G25KT 5SM -TSRA OVC035CB=



000
FTUS44 KJAN 300003 RRA
TAFMEI
TAF
KMEI 300003Z 3000/3024 17006KT P6SM SCT050 BKN120
     FM301000 16006KT P6SM OVC015
     FM301500 18010KT P6SM OVC025
     FM301600 18009KT P6SM VCSH OVC050=



000
FTUS44 KJAN 300003 RRA
TAFGWO
TAF
KGWO 300003Z 3000/3024 07006KT P6SM -SHRA SCT060 BKN110
     FM300700 15010KT P6SM BKN025
     FM301100 16009KT 5SM BR OVC015
     FM301400 16009KT P6SM OVC025
     FM301700 17012G19KT P6SM VCSH BKN040
     FM301900 16014G20KT 6SM -TSRA BKN035CB=



000
FTUS44 KJAN 300003 RRA
TAFJAN
TAF
KJAN 300003Z 3000/3024 09006KT P6SM BKN060 BKN120
     FM301000 15009KT P6SM OVC015
     FM301600 16009KT P6SM BKN040
     FM302000 15011G16KT P6SM VCTS OVC050CB=



000
FTUS44 KJAN 300003 RRA
TAFHBG
TAF
KHBG 300003Z 3000/3024 16007KT P6SM SCT050 BKN120
     FM301000 17005KT 2SM BR OVC007
     FM301200 15007KT 2SM BR OVC003
     FM301400 17010KT 5SM BR OVC015
     FM301500 18013KT P6SM OVC025
     FM301600 18014G20KT P6SM OVC050=



000
FTUS44 KJAN 292048 AAA
TAFGWO
TAF AMD
KGWO 292048Z 2921/3018 01010KT 5SM -TSRA BR BKN040CB OVC110
     FM292300 03006KT P6SM VCTS SCT030 BKN050CB
     FM300400 13008KT P6SM SCT020 BKN040
     FM301000 16013KT 6SM BR VCSH BKN020 BKN040=



000
FTUS44 KJAN 292043 AAA
TAFGLH
TAF AMD
KGLH 292043Z 2921/3018 15006KT 5SM -TSRA BR BKN050CB OVC110
     FM300400 12009KT P6SM VCTS SCT020 BKN040CB
     FM301000 16010G20KT 6SM -TSRA BKN020 BKN050CB
     FM301200 16012KT 4SM -RA HZ BR OVC025
     FM301500 16014KT 4SM -SHRA OVC025=



000
FTUS44 KJAN 292043 AAA
TAFGLH
TAF AMD
KGLH 292043Z 2921/3018 15006KT 5SM -TSRA BR BKN050CB OVC110
     FM300400 12009KT P6SM VCTS SCT020 BKN040CB
     FM301000 16010G20KT 6SM -TSRA BKN020 BKN050CB
     FM301200 16012KT 4SM -RA HZ BR OVC025
     FM301500 16014KT 4SM -SHRA OVC025=



000
FTUS44 KJAN 291720
TAFGWO
TAF
KGWO 291720Z 2918/3018 14012KT P6SM SCT025 BKN090
     FM291930 16015G23KT P6SM VCTS BKN030CB BKN050
     FM292100 30010G20KT 3SM TSRA BKN030CB BKN050
     FM292300 03006KT P6SM VCTS SCT030 BKN050CB
     FM300400 13008KT P6SM SCT020 BKN040
     FM301000 16013KT 6SM BR VCSH BKN020 BKN040=



000
FTUS44 KJAN 291720
TAFHBG
TAF
KHBG 291720Z 2918/3018 17012G20KT P6SM SCT030 BKN050
     FM300100 16007KT P6SM SCT025 BKN050
     FM301000 17005KT 1 1/2SM BR OVC004
     FM301100 15007KT 1/4SM FG OVC003
     FM301400 17010KT 3SM BR OVC015
     FM301500 18013KT P6SM OVC025
     FM301600 18014G20KT P6SM OVC050=



000
FTUS44 KJAN 291720
TAFMEI
TAF
KMEI 291720Z 2918/3018 16010G19KT P6SM SCT030 BKN050
     FM300100 17006KT P6SM SCT025 BKN050
     FM300700 14006KT 5SM BR OVC007
     FM301400 21009KT 4SM BR OVC015
     FM301500 21010KT 6SM HZ OVC025=



000
FTUS44 KJAN 291720
TAFGLH
TAF
KGLH 291720Z 2918/3018 16012KT P6SM VCTS BKN020CB BKN050
     FM292000 07008KT P6SM VCTS SCT030 BKN050CB
     FM300400 12009KT P6SM VCTS SCT020 BKN040CB
     FM301000 16010G20KT 6SM -TSRA BKN020 BKN050CB
     FM301200 16012KT 4SM -RA HZ BR OVC025
     FM301500 16014KT 4SM -SHRA OVC025=



000
FTUS44 KJAN 291720
TAFJAN
TAF
KJAN 291720Z 2918/3018 16013G20KT P6SM SCT030 BKN050
     FM292230 16014G22KT P6SM VCTS SCT025 BKN050CB
     FM300300 14009KT P6SM VCSH SCT025 BKN050
     FM301100 16009KT P6SM VCSH BKN025
     FM301200 15008KT P6SM OVC015
     FM301500 16009KT P6SM BKN050=



000
FTUS44 KJAN 291720
TAFMEI
TAF
KMEI 291720Z 2918/3018 16010G19KT P6SM SCT030 BKN050
     FM300100 17006KT P6SM SCT025 BKN050
     FM300700 14006KT 5SM BR OVC007
     FM301400 21009KT 4SM BR OVC015
     FM301500 21010KT 6SM HZ OVC025=



000
FTUS44 KJAN 291720
TAFGWO
TAF
KGWO 291720Z 2918/3018 14012KT P6SM SCT025 BKN090
     FM291930 16015G23KT P6SM VCTS BKN030CB BKN050
     FM292100 30010G20KT 3SM TSRA BKN030CB BKN050
     FM292300 03006KT P6SM VCTS SCT030 BKN050CB
     FM300400 13008KT P6SM SCT020 BKN040
     FM301000 16013KT 6SM BR VCSH BKN020 BKN040=



000
FTUS44 KJAN 291720
TAFHBG
TAF
KHBG 291720Z 2918/3018 17012G20KT P6SM SCT030 BKN050
     FM300100 16007KT P6SM SCT025 BKN050
     FM301000 17005KT 1 1/2SM BR OVC004
     FM301100 15007KT 1/4SM FG OVC003
     FM301400 17010KT 3SM BR OVC015
     FM301500 18013KT P6SM OVC025
     FM301600 18014G20KT P6SM OVC050=



000
FTUS44 KJAN 291720
TAFGLH
TAF
KGLH 291720Z 2918/3018 16012KT P6SM VCTS BKN020CB BKN050
     FM292000 07008KT P6SM VCTS SCT030 BKN050CB
     FM300400 12009KT P6SM VCTS SCT020 BKN040CB
     FM301000 16010G20KT 6SM -TSRA BKN020 BKN050CB
     FM301200 16012KT 4SM -RA HZ BR OVC025
     FM301500 16014KT 4SM -SHRA OVC025=



000
FTUS44 KJAN 291720
TAFJAN
TAF
KJAN 291720Z 2918/3018 16013G20KT P6SM SCT030 BKN050
     FM292230 16014G22KT P6SM VCTS SCT025 BKN050CB
     FM300300 14009KT P6SM VCSH SCT025 BKN050
     FM301100 16009KT P6SM VCSH BKN025
     FM301200 15008KT P6SM OVC015
     FM301500 16009KT P6SM BKN050=



000
FTUS44 KJAN 291407 AAA
TAFGWO
TAF AMD
KGWO 291407Z 2914/3012 12003KT P6SM SCT006 SCT010 OVC090
     FM291600 14012KT P6SM BKN025 BKN050
     FM291930 16015G23KT P6SM VCTS BKN030CB BKN050
     FM292100 30010G20KT 3SM TSRA BKN030CB BKN050
     FM292300 03006KT P6SM VCTS SCT030 BKN050CB
     FM300400 13008KT P6SM SCT020 BKN040
     FM301000 16013KT 6SM BR VCSH BKN020 BKN040=



000
FTUS44 KJAN 291320 AAA
TAFGLH
TAF AMD
KGLH 291320Z 2913/3012 13009KT 5SM BR BKN100
     FM291430 15010KT 6SM BR VCSH BKN010 OVC050
     FM291600 16012KT P6SM VCTS BKN020CB BKN050
     FM291830 17015G23KT 5SM -TSRA BKN025CB BKN050
     FM292000 07008KT P6SM VCTS SCT030 BKN050CB
     FM300400 12009KT P6SM VCTS SCT020 BKN040CB
     FM301000 16010G20KT 6SM -TSRA BKN020 BKN050CB=



000
FTUS44 KJAN 291320 AAA
TAFGLH
TAF AMD
KGLH 291320Z 2913/3012 13009KT 5SM BR BKN100
     FM291430 15010KT 6SM BR VCSH BKN010 OVC050
     FM291600 16012KT P6SM VCTS BKN020CB BKN050
     FM291830 17015G23KT 5SM -TSRA BKN025CB BKN050
     FM292000 07008KT P6SM VCTS SCT030 BKN050CB
     FM300400 12009KT P6SM VCTS SCT020 BKN040CB
     FM301000 16010G20KT 6SM -TSRA BKN020 BKN050CB=



000
FTUS44 KJAN 291150 RRB
TAFGWO
TAF
KGWO 291150Z 2912/3012 11005KT 5SM BR BKN005 OVC030
     FM291600 14012KT P6SM BKN025 BKN050
     FM291930 16015G23KT P6SM VCTS BKN030CB BKN050
     FM292100 30010G20KT 3SM TSRA BKN030CB BKN050
     FM292300 03006KT P6SM VCTS SCT030 BKN050CB
     FM300400 13008KT P6SM SCT020 BKN040
     FM301000 16013KT 6SM BR VCSH BKN020 BKN040=



000
FTUS44 KJAN 291150 RRB
TAFGLH
TAF
KGLH 291150Z 2912/3012 14006KT 5SM BR BKN005 OVC030
     FM291330 15010KT 6SM BR VCSH BKN010 OVC050
     FM291600 16012KT P6SM VCTS BKN020CB BKN050
     FM291830 17015G23KT 5SM -TSRA BKN025CB BKN050
     FM292000 07008KT P6SM VCTS SCT030 BKN050CB
     FM300400 12009KT P6SM VCTS SCT020 BKN040CB
     FM301000 16010G20KT 6SM -TSRA BKN020 BKN050CB=



000
FTUS44 KJAN 291150 RRB
TAFHBG
TAF
KHBG 291150Z 2912/3012 15003KT P6SM FEW004 SCT030
     FM291430 16008KT P6SM BKN015 BKN030
     FM291600 17012G20KT P6SM SCT020 BKN030
     FM300100 16007KT P6SM SCT025 BKN050
     FM300700 14006KT 5SM BR BKN009 OVC020=



000
FTUS44 KJAN 291150 RRB
TAFMEI
TAF
KMEI 291150Z 2912/3012 VRB04KT P6SM FEW009 SCT020
     FM291430 16008KT P6SM SCT015 BKN030
     FM291630 16010G19KT P6SM SCT020 BKN040
     FM300100 17006KT P6SM SCT025 BKN050=



000
FTUS44 KJAN 291150 RRB
TAFJAN
TAF
KJAN 291150Z 2912/3012 15006KT P6SM FEW009 SCT020 BKN040
     FM291430 15010G19KT P6SM BKN020 BKN040
     FM291600 16013G20KT P6SM SCT020 BKN030
     FM292230 16014G22KT P6SM VCTS SCT025 BKN050CB
     FM300300 14009KT P6SM VCSH SCT025 BKN050=



000
FTUS44 KJAN 291150 RRB
TAFJAN
TAF
KJAN 291150Z 2912/3012 15006KT P6SM FEW009 SCT020 BKN040
     FM291430 15010G19KT P6SM BKN020 BKN040
     FM291600 16013G20KT P6SM SCT020 BKN030
     FM292230 16014G22KT P6SM VCTS SCT025 BKN050CB
     FM300300 14009KT P6SM VCSH SCT025 BKN050=



000
FTUS44 KJAN 291150 RRB
TAFMEI
TAF
KMEI 291150Z 2912/3012 VRB04KT P6SM FEW009 SCT020
     FM291430 16008KT P6SM SCT015 BKN030
     FM291630 16010G19KT P6SM SCT020 BKN040
     FM300100 17006KT P6SM SCT025 BKN050=



000
FTUS44 KJAN 291150 RRB
TAFHBG
TAF
KHBG 291150Z 2912/3012 15003KT P6SM FEW004 SCT030
     FM291430 16008KT P6SM BKN015 BKN030
     FM291600 17012G20KT P6SM SCT020 BKN030
     FM300100 16007KT P6SM SCT025 BKN050
     FM300700 14006KT 5SM BR BKN009 OVC020=



000
FTUS44 KJAN 291150 RRB
TAFGWO
TAF
KGWO 291150Z 2912/3012 11005KT 5SM BR BKN005 OVC030
     FM291600 14012KT P6SM BKN025 BKN050
     FM291930 16015G23KT P6SM VCTS BKN030CB BKN050
     FM292100 30010G20KT 3SM TSRA BKN030CB BKN050
     FM292300 03006KT P6SM VCTS SCT030 BKN050CB
     FM300400 13008KT P6SM SCT020 BKN040
     FM301000 16013KT 6SM BR VCSH BKN020 BKN040=



000
FTUS44 KJAN 291150 RRB
TAFGLH
TAF
KGLH 291150Z 2912/3012 14006KT 5SM BR BKN005 OVC030
     FM291330 15010KT 6SM BR VCSH BKN010 OVC050
     FM291600 16012KT P6SM VCTS BKN020CB BKN050
     FM291830 17015G23KT 5SM -TSRA BKN025CB BKN050
     FM292000 07008KT P6SM VCTS SCT030 BKN050CB
     FM300400 12009KT P6SM VCTS SCT020 BKN040CB
     FM301000 16010G20KT 6SM -TSRA BKN020 BKN050CB=



000
FTUS44 KJAN 290550 RRA
TAFHBG
TAF
KHBG 290550Z 2906/3006 14003KT P6SM SCT015 SCT025
     FM290900 15003KT 5SM BR BKN009 OVC020
     FM291100 15003KT 1SM BR BKN004
     FM291330 16005KT 5SM BR BKN009 BKN025
     FM291430 16008KT P6SM BKN015 BKN030
     FM291600 17012G20KT P6SM SCT020 BKN030
     FM300100 16007KT P6SM SCT025 BKN050=



000
FTUS44 KJAN 290550 RRA
TAFGWO
TAF
KGWO 290550Z 2906/3006 07005KT P6SM FEW050 SCT250
     FM291200 11006KT 6SM BR BKN015 OVC030
     FM291600 14012KT P6SM BKN025 BKN050
     FM291800 16013G21KT P6SM VCTS BKN030CB BKN050
     FM292100 30010G20KT 5SM -TSRA BKN030CB BKN050
     FM292300 03006KT P6SM VCTS SCT030 BKN050CB
     FM300400 13010KT P6SM SCT020 BKN040=



000
FTUS44 KJAN 290550 RRA
TAFGLH
TAF
KGLH 290550Z 2906/3006 08006KT P6SM FEW050 SCT250
     FM291100 12006KT 6SM -TSRA BR BKN015 OVC030CB
     FM291300 13010KT 6SM -SHRA BR BKN010 OVC050
     FM291600 14012KT P6SM VCTS BKN020CB BKN050
     FM291800 17015G23KT P6SM VCTS BKN030CB BKN050
     FM292100 07010KT P6SM VCSH SCT030 BKN050
     FM300400 12009KT P6SM VCTS SCT020 BKN040CB=



000
FTUS44 KJAN 290550 RRA
TAFMEI
TAF
KMEI 290550Z 2906/3006 19005KT P6SM FEW015 SCT025
     FM290900 19003KT 5SM BR BKN009 OVC020
     FM291430 16008KT P6SM BKN015 BKN030
     FM291600 16010G19KT P6SM SCT020 BKN030
     FM300100 17006KT P6SM SCT025 BKN050=



000
FTUS44 KJAN 290550 RRA
TAFJAN
TAF
KJAN 290550Z 2906/3006 17006KT P6SM BKN015 BKN025
     FM290900 16006KT 6SM BR BKN009 OVC020
     FM291430 15010G19KT P6SM BKN015 BKN030
     FM291600 16013G20KT P6SM SCT020 BKN030
     FM292200 16014G22KT P6SM VCTS SCT025 BKN050CB
     FM300300 14009KT P6SM VCSH SCT025 BKN050=



000
FTUS44 KJAN 282320
TAFGWO
TAF
KGWO 282320Z 2900/2924 02004KT P6SM SKC
     FM291300 10006KT P6SM VCSH OVC050
     FM291600 12011KT P6SM -TSRA OVC025CB
     FM291800 05006KT 6SM -TSRA OVC050CB
     FM292100 07010KT P6SM -RA OVC050=



000
FTUS44 KJAN 282320
TAFJAN
TAF
KJAN 282320Z 2900/2924 20003KT P6SM FEW050
     FM290900 14003KT P6SM OVC025
     FM291200 15009KT P6SM OVC015
     FM291600 16012G18KT P6SM BKN050
     FM292200 14009KT P6SM SCT250=



000
FTUS44 KJAN 282320
TAFMEI
TAF
KMEI 282320Z 2900/2924 20004KT P6SM FEW050
     FM290800 00000KT 4SM BR BKN009
     FM291100 00000KT 4SM BR OVC003
     FM291500 15008KT P6SM BKN025
     FM291700 16008KT P6SM OVC050=



000
FTUS44 KJAN 282320
TAFHBG
TAF
KHBG 282320Z 2900/2924 17004KT P6SM SCT050
     FM290800 14003KT 5SM BR BKN004
     FM291000 00000KT 1/2SM FG OVC001
     FM291500 15007KT P6SM BKN015
     FM291800 18011G17KT P6SM FEW250=



000
FTUS44 KJAN 282320
TAFGLH
TAF
KGLH 282320Z 2900/2924 07005KT P6SM SKC
     FM291300 10010KT P6SM -SHRA OVC050
     FM291600 14011KT P6SM -TSRA OVC025CB
     FM291800 05006KT 6SM -TSRA OVC050CB
     FM292100 07010KT P6SM -RA OVC050=



000
FTUS44 KJAN 282104 AAA
TAFMEI
TAF AMD
KMEI 282104Z 2821/2918 23012G18KT 6SM -TSRA BKN040CB BKN100
     FM290000 VRB04KT P6SM FEW050
     FM290700 14003KT 4SM BR BKN009
     FM291000 17002KT 4SM BR OVC003
     FM291500 17004KT P6SM BKN025=



000
FTUS44 KJAN 282104 AAA
TAFMEI
TAF AMD
KMEI 282104Z 2821/2918 23012G18KT 6SM -TSRA BKN040CB BKN100
     FM290000 VRB04KT P6SM FEW050
     FM290700 14003KT 4SM BR BKN009
     FM291000 17002KT 4SM BR OVC003
     FM291500 17004KT P6SM BKN025=



    US Dept of Commerce
    National Oceanic and Atmospheric Administration
    National Weather Service
    1325 East West Highway
    Silver Spring, MD 20910
    Page Author: NWS Internet Services Team
Disclaimer
Information Quality
Credits
Glossary
Privacy Policy
Freedom of Information Act (FOIA)
About Us
Career Opportunities